Time;durP1;ratioP1;P1;durP2;ratioP2;P2;SDS_P1;SDS_P2;PMS_P1;PMS_P2;Temp;Humidity;BMP_temperature;BMP_pressure;BME280_temperature;BME280_humidity;BME280_pressure;Samples;Min_cycle;Max_cycle;Signal;HPM_P1;HPM_P2
2022/06/29 00:01:30;;;;;;;;;1.00;1.00;;;;;22.63;37.41;100756.53;5019860;28;45687;-85
2022/06/29 00:03:57;;;;;;;;;2.00;2.00;;;;;22.66;36.83;100766.88;5002501;28;45576;-84
2022/06/29 00:06:22;;;;;;;;;2.75;1.25;;;;;22.54;37.73;100750.47;5020025;28;46490;-86
2022/06/29 00:08:47;;;;;;;;;1.00;1.00;;;;;22.56;37.84;100753.75;5020875;28;45536;-85
2022/06/29 00:11:28;;;;;;;;;2.00;1.75;;;;;22.65;37.75;100761.69;5022022;28;45670;-85
2022/06/29 00:13:53;;;;;;;;;4.25;3.00;;;;;22.69;38.01;100768.31;5006476;28;45468;-84
2022/06/29 00:16:18;;;;;;;;;2.00;2.00;;;;;22.61;38.02;100763.91;5007656;28;46422;-86
2022/06/29 00:18:44;;;;;;;;;2.00;2.00;;;;;22.59;38.00;100764.09;5024083;28;46452;-86
2022/06/29 00:21:10;;;;;;;;;2.25;2.00;;;;;22.62;38.04;100768.22;5025078;28;45751;-85
2022/06/29 00:23:35;;;;;;;;;1.25;1.00;;;;;22.52;38.06;100751.66;5022779;28;45648;-86
2022/06/29 00:26:00;;;;;;;;;1.00;1.00;;;;;22.61;38.55;100771.94;5003429;28;46642;-88
2022/06/29 00:31:47;;;;;;;;;2.00;1.75;;;;;22.48;38.84;100750.34;5022705;28;45580;-89
2022/06/29 00:34:15;;;;;;;;;2.75;2.00;;;;;22.53;39.21;100762.16;5018199;28;45426;-85
2022/06/29 00:36:40;;;;;;;;;2.00;1.25;;;;;22.51;39.53;100761.50;5021795;28;48463;-91
2022/06/29 00:39:06;;;;;;;;;3.00;2.00;;;;;22.42;39.31;100751.91;5025472;28;45714;-92
2022/06/29 00:41:45;;;;;;;;;1.75;1.75;;;;;22.39;39.66;100756.81;5009421;28;45679;-89
2022/06/29 00:44:16;;;;;;;;;3.50;2.50;;;;;22.39;40.02;100762.97;5012257;28;45497;-91
2022/06/29 00:46:47;;;;;;;;;2.00;2.00;;;;;22.34;39.69;100749.34;5026983;28;45726;-85
2022/06/29 00:49:15;;;;;;;;;2.00;1.00;;;;;22.29;40.16;100738.38;5029204;28;45876;-84
2022/06/29 00:51:45;;;;;;;;;1.50;1.50;;;;;22.31;40.80;100740.84;5030373;28;45576;-85
2022/06/29 00:54:17;;;;;;;;;3.25;2.25;;;;;22.31;40.07;100740.84;5032151;28;45540;-90
2022/06/29 00:56:43;;;;;;;;;3.00;2.50;;;;;22.32;40.66;100746.00;5028527;28;45674;-93
2022/06/29 00:59:12;;;;;;;;;2.50;2.00;;;;;22.29;40.77;100740.22;5027037;28;45651;-91
2022/06/29 01:01:40;;;;;;;;;1.75;1.75;;;;;22.33;40.63;100742.34;5030625;28;45611;-89
2022/06/29 01:04:06;;;;;;;;;2.00;2.00;;;;;22.32;40.46;100743.34;5035841;28;45778;-84
2022/06/29 01:06:32;;;;;;;;;2.00;2.00;;;;;22.26;40.66;100733.38;5031121;28;45491;-85
2022/06/29 01:08:57;;;;;;;;;5.00;4.00;;;;;22.33;40.78;100747.69;5010768;28;46074;-89
2022/06/29 01:11:23;;;;;;;;;2.75;2.00;;;;;22.31;41.39;100740.84;5025967;28;45623;-88
2022/06/29 01:17:11;;;;;;;;;3.00;3.00;;;;;22.30;41.23;100748.03;5022177;28;45658;-86
2022/06/29 01:19:38;;;;;;;;;1.75;1.00;;;;;22.22;41.16;100734.78;5023109;28;46584;-88
2022/06/29 01:22:11;;;;;;;;;2.00;2.00;;;;;22.18;41.01;100725.47;5007423;28;45637;-91
2022/06/29 01:24:38;;;;;;;;;2.00;2.00;;;;;22.24;41.49;100732.72;5024704;28;45587;-88
2022/06/29 01:27:04;;;;;;;;;2.75;2.00;;;;;22.29;42.16;100751.72;5007001;28;47565;-84
2022/06/29 01:29:30;;;;;;;;;2.25;2.25;;;;;22.21;41.68;100730.44;5024874;28;47711;-84
2022/06/29 01:31:56;;;;;;;;;1.75;1.75;;;;;22.22;41.93;100734.78;5006201;28;45652;-86
2022/06/29 01:34:23;;;;;;;;;3.00;2.25;;;;;22.24;42.31;100734.59;5021021;28;45588;-83
2022/06/29 01:36:48;;;;;;;;;3.00;2.50;;;;;22.20;41.78;100734.09;5002640;28;47372;-86
2022/06/29 01:39:14;;;;;;;;;3.00;3.00;;;;;22.23;42.04;100735.59;5022150;28;45530;-88
2022/06/29 01:41:39;;;;;;;;;2.00;2.00;;;;;22.17;42.13;100727.31;5023322;28;45561;-91
2022/06/29 01:47:26;;;;;;;;;1.75;1.25;;;;;22.21;41.85;100725.09;5023462;28;45558;-87
2022/06/29 01:49:52;;;;;;;;;3.25;3.00;;;;;22.27;42.00;100735.06;5023123;28;45473;-88
2022/06/29 01:52:17;;;;;;;;;2.50;2.00;;;;;22.25;41.83;100726.38;5023835;28;45430;-90
2022/06/29 01:54:43;;;;;;;;;3.25;3.00;;;;;22.16;41.66;100720.31;5023753;28;45664;-88
2022/06/29 01:57:09;;;;;;;;;3.00;3.00;;;;;22.26;42.32;100738.72;5023755;28;46525;-89
2022/06/29 01:59:34;;;;;;;;;3.50;3.00;;;;;22.24;42.05;100723.91;5032678;28;46381;-93
2022/06/29 02:02:01;;;;;;;;;2.75;2.75;;;;;;;;5005338;28;45521;-86
2022/06/29 02:04:27;;;;;;;;;2.75;2.50;;;;;22.24;42.52;100738.06;5024683;28;45579;-84
2022/06/29 02:06:52;;;;;;;;;4.00;2.50;;;;;22.13;42.39;100726.00;5023704;28;47401;-84
2022/06/29 02:09:18;;;;;;;;;3.00;2.00;;;;;22.07;42.21;100732.06;5004760;28;47086;-84
2022/06/29 02:11:43;;;;;;;;;2.00;1.50;;;;;21.98;42.89;100735.81;5020804;28;45930;-84
2022/06/29 02:17:30;;;;;;;;;2.00;2.00;;;;;21.76;42.92;100726.78;5015510;28;45676;-84
2022/06/29 02:19:55;;;;;;;;;2.00;2.00;;;;;21.70;42.96;100721.34;4998089;28;48136;-84
2022/06/29 02:22:21;;;;;;;;;2.00;2.00;;;;;21.67;43.29;100727.03;5018310;28;45500;-85
2022/06/29 02:24:46;;;;;;;;;3.00;2.75;;;;;21.67;42.85;100729.69;5018511;28;45564;-85
2022/06/29 02:27:12;;;;;;;;;3.00;2.25;;;;;21.65;42.76;100724.53;5017844;28;45593;-84
2022/06/29 02:35:59;;;;;;;;;2.00;2.00;;;;;21.68;43.02;100726.84;4978491;28;45690;-85
2022/06/29 02:38:25;;;;;;;;;2.50;2.00;;;;;21.67;43.46;100725.19;5006674;28;46315;-83
2022/06/29 02:40:50;;;;;;;;;2.75;2.00;;;;;21.63;43.35;100718.56;5015328;28;45604;-84
2022/06/29 02:43:16;;;;;;;;;2.00;1.25;;;;;21.66;43.61;100720.84;5015628;28;45521;-84
2022/06/29 02:45:41;;;;;;;;;3.00;2.00;;;;;21.68;43.73;100723.34;5013377;28;45822;-86
2022/06/29 02:48:07;;;;;;;;;2.00;1.75;;;;;21.64;43.55;100714.06;5015819;28;47422;-86
2022/06/29 02:50:32;;;;;;;;;2.00;2.00;;;;;21.60;43.58;100708.22;5018363;28;47298;-85
2022/06/29 02:52:58;;;;;;;;;2.00;1.50;;;;;21.68;43.58;100713.53;5018823;28;46097;-87
2022/06/29 02:55:23;;;;;;;;;2.00;2.00;;;;;21.70;44.13;100711.47;5000711;28;45513;-88
2022/06/29 02:57:49;;;;;;;;;2.50;2.50;;;;;21.64;43.96;100701.56;5023221;28;45744;-85
2022/06/29 03:00:15;;;;;;;;;0.25;0.00;;;;;21.69;43.64;100711.69;5004457;28;46740;-83
2022/06/29 03:02:41;;;;;;;;;3.00;2.00;;;;;21.59;43.87;100698.56;5003630;28;45615;-86
2022/06/29 03:05:07;;;;;;;;;2.75;2.00;;;;;21.70;44.11;100714.16;5023420;28;45821;-84
2022/06/29 03:07:33;;;;;;;;;3.00;2.75;;;;;21.60;44.10;100705.56;5022201;28;45743;-86
2022/06/29 03:09:58;;;;;;;;;3.25;3.00;;;;;21.63;44.04;100718.56;5019747;28;47377;-86
2022/06/29 03:12:24;;;;;;;;;2.00;1.75;;;;;21.60;44.42;100718.91;5020580;28;45564;-85
2022/06/29 03:18:11;;;;;;;;;3.25;2.75;;;;;21.50;44.59;100720.13;5017567;28;45761;-85
2022/06/29 03:20:37;;;;;;;;;2.25;1.75;;;;;21.38;44.42;100708.25;5015609;28;46144;-84
2022/06/29 03:23:02;;;;;;;;;3.00;2.00;;;;;21.43;45.07;100717.34;5015044;28;45656;-86
2022/06/29 03:25:28;;;;;;;;;4.00;3.00;;;;;21.34;44.86;100705.06;5018376;28;45644;-88
2022/06/29 03:27:53;;;;;;;;;2.75;2.25;;;;;21.47;44.44;100733.84;5021155;28;45696;-86
2022/06/29 03:33:41;;;;;;;;;5.00;2.25;;;;;21.36;44.78;100708.41;5020204;28;45603;-85
2022/06/29 03:36:06;;;;;;;;;2.75;2.00;;;;;21.35;45.05;100704.91;5017611;28;45661;-86
2022/06/29 03:38:32;;;;;;;;;3.00;2.50;;;;;21.34;45.11;100702.41;5019236;28;47533;-85
2022/06/29 03:40:57;;;;;;;;;3.00;2.00;;;;;21.39;45.07;100717.88;5020279;28;46314;-84
2022/06/29 03:43:23;;;;;;;;;2.00;2.00;;;;;21.30;45.20;100706.44;5003488;28;45611;-84
2022/06/29 03:45:48;;;;;;;;;3.75;3.00;;;;;21.29;44.91;100699.44;5021445;28;45732;-86
2022/06/29 03:48:15;;;;;;;;;3.00;2.25;;;;;21.30;44.82;100699.28;5020254;28;46672;-87
2022/06/29 03:50:40;;;;;;;;;3.00;3.00;;;;;21.28;45.19;100695.13;5020707;28;46341;-87
2022/06/29 03:53:06;;;;;;;;;4.00;3.00;;;;;21.37;45.00;100719.91;5019897;28;45501;-86
2022/06/29 03:55:31;;;;;;;;;3.25;2.75;;;;;21.30;45.04;100699.28;5003728;28;46042;-88
2022/06/29 03:57:57;;;;;;;;;4.00;3.00;;;;;21.33;45.24;100701.59;5022686;28;45541;-88
2022/06/29 04:04:24;;;;;;;;;2.50;2.00;;;;;21.29;45.68;100710.94;5017644;28;45698;-86
2022/06/29 04:06:49;;;;;;;;;1.75;1.75;;;;;21.16;45.74;100704.53;5019774;28;45858;-88
2022/06/29 04:09:14;;;;;;;;;2.25;2.25;;;;;21.13;45.73;100700.34;5019791;28;46408;-86
2022/06/29 04:11:49;;;;;;;;;2.00;2.00;;;;;21.15;46.34;100716.19;5020124;28;46099;-85
2022/06/29 04:14:15;;;;;;;;;3.25;3.00;;;;;21.10;46.12;100707.88;5019541;28;45681;-85
2022/06/29 04:16:41;;;;;;;;;2.00;2.00;;;;;21.00;46.09;100693.94;5034990;28;45417;-88
2022/06/29 04:19:06;;;;;;;;;3.00;2.00;;;;;21.02;45.90;100705.22;5019730;28;48935;-85
2022/06/29 04:21:32;;;;;;;;;2.75;2.50;;;;;21.04;45.94;100711.22;5017114;28;45975;-86
2022/06/29 04:23:57;;;;;;;;;3.00;2.25;;;;;21.00;46.21;100693.94;5025700;28;45730;-89
2022/06/29 04:26:22;;;;;;;;;1.75;1.75;;;;;21.08;46.49;100705.38;5018801;28;45581;-86
2022/06/29 04:28:48;;;;;;;;;3.50;3.50;;;;;21.02;46.18;100708.72;5016410;28;46500;-88
2022/06/29 04:31:13;;;;;;;;;3.00;2.00;;;;;21.06;46.42;100707.38;5017360;28;45533;-83
2022/06/29 04:33:39;;;;;;;;;2.00;2.00;;;;;21.03;46.31;100698.91;5016888;28;45505;-85
2022/06/29 04:36:04;;;;;;;;;1.00;1.00;;;;;21.07;46.27;100708.19;5016632;28;45766;-87
2022/06/29 04:38:29;;;;;;;;;2.00;2.00;;;;;21.11;46.18;100712.16;5015389;28;46923;-84
2022/06/29 04:40:55;;;;;;;;;2.25;2.00;;;;;21.13;45.75;100704.84;5015829;28;48390;-85
2022/06/29 04:43:20;;;;;;;;;2.50;1.75;;;;;21.14;45.97;100711.84;5018843;28;45910;-85
2022/06/29 04:49:09;;;;;;;;;5.00;3.50;;;;;21.17;46.14;100701.69;5017144;28;46036;-83
2022/06/29 04:51:35;;;;;;;;;4.00;3.25;;;;;21.22;46.03;100707.31;5019251;28;45983;-84
2022/06/29 04:54:01;;;;;;;;;5.25;4.50;;;;;21.12;46.19;100681.84;5015802;28;45819;-85
2022/06/29 04:56:29;;;;;;;;;3.00;3.00;;;;;21.26;46.20;100697.97;5016786;28;45402;-84
2022/06/29 04:58:57;;;;;;;;;5.00;3.25;;;;;21.28;46.02;100705.78;5014489;28;47647;-84
2022/06/29 05:01:24;;;;;;;;;3.50;2.75;;;;;21.29;45.84;100702.94;4997983;28;46909;-84
2022/06/29 05:03:50;;;;;;;;;3.00;3.00;;;;;21.27;45.88;100696.94;5016551;28;45684;-86
2022/06/29 05:06:15;;;;;;;;;4.00;4.00;;;;;21.22;46.08;100687.81;5017405;28;45896;-87
2022/06/29 05:08:40;;;;;;;;;4.25;3.75;;;;;21.22;46.40;100698.47;5016820;28;46793;-87
2022/06/29 05:11:06;;;;;;;;;2.00;2.00;;;;;21.16;46.76;100704.53;5017373;28;45955;-86
2022/06/29 05:13:32;;;;;;;;;4.00;2.50;;;;;21.02;46.40;100699.91;4998985;28;45720;-85
2022/06/29 05:19:19;;;;;;;;;6.00;4.00;;;;;20.81;46.89;100695.19;5019717;28;45941;-84
2022/06/29 05:21:45;;;;;;;;;3.25;3.25;;;;;20.76;46.92;100698.34;5008207;28;45555;-85
2022/06/29 05:24:10;;;;;;;;;4.00;3.75;;;;;20.73;46.35;100697.88;5008175;28;45611;-84
2022/06/29 05:26:37;;;;;;;;;4.75;3.75;;;;;20.69;46.21;100696.53;5020139;28;45572;-85
2022/06/29 05:29:03;;;;;;;;;3.50;3.50;;;;;20.61;46.39;100691.25;5016530;28;45600;-85
2022/06/29 05:34:50;;;;;;;;;4.25;3.50;;;;;20.45;45.75;100716.94;5016375;28;45532;-85
2022/06/29 05:37:16;;;;;;;;;4.00;3.25;;;;;20.36;46.29;100714.44;4998510;28;45863;-84
2022/06/29 05:39:44;;;;;;;;;4.25;3.25;;;;;20.20;46.37;100709.13;5014946;28;47326;-85
2022/06/29 05:42:09;;;;;;;;;2.50;2.25;;;;;20.21;46.07;100721.44;5017746;28;46005;-85
2022/06/29 05:44:35;;;;;;;;;3.00;2.00;;;;;20.12;46.20;100712.63;5017295;28;45658;-86
2022/06/29 05:47:01;;;;;;;;;2.00;2.00;;;;;20.13;46.58;100717.75;5016654;28;45697;-88
2022/06/29 05:49:26;;;;;;;;;3.00;2.50;;;;;20.05;46.52;100706.31;5017735;28;45673;-86
2022/06/29 05:51:51;;;;;;;;;3.00;3.00;;;;;20.08;46.78;100722.75;5017837;28;45679;-86
2022/06/29 05:54:17;;;;;;;;;2.50;2.25;;;;;19.99;46.70;100707.81;5015101;28;46150;-81
2022/06/29 05:56:42;;;;;;;;;3.00;3.00;;;;;19.99;46.86;100699.84;5017560;28;45849;-84
2022/06/29 05:59:10;;;;;;;;;2.00;2.00;;;;;19.98;46.62;100703.50;5014720;28;47495;-87
2022/06/29 06:05:08;;;;;;;;;2.50;2.50;;;;;19.98;46.32;100694.69;5012536;28;45770;-85
2022/06/29 06:07:46;;;;;;;;;3.25;2.50;;;;;20.03;46.11;100705.63;5014502;28;45647;-86
2022/06/29 06:10:11;;;;;;;;;1.50;1.50;;;;;20.09;46.18;100704.97;5013259;28;47862;-85
2022/06/29 06:12:37;;;;;;;;;2.00;2.00;;;;;20.03;45.72;100695.84;4996640;28;47353;-84
2022/06/29 06:15:02;;;;;;;;;3.00;1.25;;;;;20.08;45.66;100700.69;5014952;28;45700;-86
2022/06/29 06:17:28;;;;;;;;;1.50;1.25;;;;;20.00;45.63;100695.34;5014166;28;45850;-85
2022/06/29 06:19:54;;;;;;;;;2.75;2.00;;;;;20.07;45.25;100704.31;5012682;28;48366;-86
2022/06/29 06:22:20;;;;;;;;;0.50;0.00;;;;;20.09;45.45;100710.28;4996108;28;47351;-86
2022/06/29 06:24:46;;;;;;;;;0.75;0.75;;;;;20.09;45.31;100713.78;5014434;28;45684;-86
2022/06/29 06:27:12;;;;;;;;;3.00;1.00;;;;;20.10;45.79;100712.78;5014727;28;45528;-88
2022/06/29 06:29:37;;;;;;;;;2.00;2.00;;;;;20.15;45.20;100720.25;5012244;28;47588;-82
2022/06/29 06:35:25;;;;;;;;;2.75;2.00;;;;;20.28;45.53;100725.09;5013953;28;45705;-82
2022/06/29 06:37:53;;;;;;;;;1.00;1.00;;;;;20.22;45.90;100707.13;5014001;28;45782;-81
2022/06/29 06:43:02;;;;;;;;;1.00;1.00;;;;;20.37;45.77;100716.94;5012544;28;45685;-81
2022/06/29 06:45:29;;;;;;;;;1.75;1.75;;;;;20.48;45.76;100723.75;5013200;28;45818;-80
2022/06/29 06:47:55;;;;;;;;;1.75;1.75;;;;;20.54;45.54;100717.72;5014605;28;45532;-77
2022/06/29 06:50:21;;;;;;;;;1.50;1.50;;;;;20.57;45.67;100720.03;5013383;28;47131;-79
2022/06/29 06:52:46;;;;;;;;;1.00;1.00;;;;;20.50;45.11;100703.13;5014889;28;45832;-82
2022/06/29 06:55:13;;;;;;;;;0.75;0.75;;;;;20.52;44.92;100693.94;5012881;28;45629;-79
2022/06/29 06:57:38;;;;;;;;;2.75;1.75;;;;;20.58;45.28;100692.44;5015339;28;45703;-81
2022/06/29 07:00:05;;;;;;;;;2.00;1.50;;;;;20.65;45.14;100698.72;5000900;28;48705;-79
2022/06/29 07:02:30;;;;;;;;;2.75;2.75;;;;;20.75;45.19;100704.69;5018626;28;46143;-80
2022/06/29 07:04:56;;;;;;;;;3.25;2.50;;;;;20.77;45.04;100697.38;5016681;28;45548;-78
2022/06/29 07:07:21;;;;;;;;;1.75;1.75;;;;;20.81;44.88;100698.66;5018665;28;45715;-79
2022/06/29 07:09:47;;;;;;;;;2.75;2.00;;;;;20.98;44.56;100714.59;5018932;28;46468;-82
2022/06/29 07:12:13;;;;;;;;;5.25;2.00;;;;;20.97;44.43;100697.75;5017987;28;46119;-78
2022/06/29 07:14:38;;;;;;;;;1.00;1.00;;;;;21.05;43.90;100700.41;5017334;28;45615;-81
2022/06/29 07:20:30;;;;;;;;;1.75;1.00;;;;;21.12;44.07;100698.69;5020463;28;45743;-82
2022/06/29 07:22:56;;;;;;;;;2.00;1.00;;;;;21.17;43.74;100704.34;5022022;28;45911;-81
2022/06/29 07:25:22;;;;;;;;;1.00;1.00;;;;;21.22;43.59;100709.97;5021371;28;45696;-77
2022/06/29 07:27:47;;;;;;;;;2.00;2.00;;;;;21.21;43.77;100694.19;5022960;28;45611;-77
2022/06/29 07:30:13;;;;;;;;;1.00;1.00;;;;;21.38;43.45;100709.03;5024005;28;45680;-80
2022/06/29 07:32:38;;;;;;;;;2.00;1.00;;;;;21.37;42.99;100699.41;5023613;28;45636;-77
2022/06/29 07:35:05;;;;;;;;;1.00;1.00;;;;;21.48;43.15;100715.00;5022794;28;45686;-80
2022/06/29 07:37:31;;;;;;;;;2.00;1.00;;;;;21.50;43.45;100715.63;5019332;28;45757;-78
2022/06/29 07:39:57;;;;;;;;;1.00;1.00;;;;;21.52;43.22;100689.63;5017446;28;45574;-80
2022/06/29 07:42:22;;;;;;;;;1.25;1.00;;;;;21.58;43.22;100688.94;5019022;28;45584;-77
2022/06/29 07:44:48;;;;;;;;;2.25;1.00;;;;;21.64;43.01;100704.22;5015861;28;45842;-79
2022/06/29 07:50:35;;;;;;;;;1.50;1.50;;;;;21.85;42.90;100694.72;5017945;28;45973;-81
2022/06/29 07:53:00;;;;;;;;;2.00;2.00;;;;;21.87;42.87;100682.84;5019289;28;46186;-80
2022/06/29 07:55:26;;;;;;;;;1.25;1.00;;;;;21.97;42.13;100695.97;5021678;28;45639;-79
2022/06/29 07:57:52;;;;;;;;;1.50;1.00;;;;;21.92;41.83;100682.28;5021262;28;45593;-83
2022/06/29 08:00:17;;;;;;;;;1.00;1.00;;;;;22.05;41.40;100696.72;5019705;28;46617;-78
2022/06/29 08:06:05;;;;;;;;;1.00;1.00;;;;;22.14;41.40;100689.44;5017135;28;45647;-84
2022/06/29 08:08:31;;;;;;;;;1.00;1.00;;;;;22.17;41.09;100687.28;5016508;28;45559;-81
2022/06/29 08:10:57;;;;;;;;;3.00;1.00;;;;;22.23;41.44;100688.38;5015302;28;46367;-81
2022/06/29 08:13:22;;;;;;;;;1.50;1.00;;;;;22.33;41.42;100701.47;5016067;28;45771;-84
2022/06/29 08:15:47;;;;;;;;;1.00;1.00;;;;;22.38;41.35;100702.56;5016303;28;45688;-84
2022/06/29 08:18:14;;;;;;;;;1.00;1.00;;;;;22.40;41.61;100692.50;5016187;28;45875;-85
2022/06/29 08:20:40;;;;;;;;;2.50;2.25;;;;;22.42;41.77;100687.81;4997529;28;48583;-83
2022/06/29 08:23:06;;;;;;;;;2.25;1.25;;;;;22.51;41.12;100699.28;5015423;28;46593;-85
2022/06/29 08:25:32;;;;;;;;;0.00;0.00;;;;;22.50;41.00;100694.94;5016619;28;45794;-82
2022/06/29 08:27:58;;;;;;;;;3.75;1.50;;;;;22.54;41.39;100686.38;5015829;28;45648;-84
2022/06/29 08:30:24;;;;;;;;;2.25;2.00;;;;;22.51;40.81;100678.72;5016112;28;45867;-85
2022/06/29 08:36:11;;;;;;;;;2.00;1.00;;;;;22.57;40.66;100677.13;5019748;28;45695;-80
2022/06/29 08:38:38;;;;;;;;;3.75;1.50;;;;;22.54;40.86;100670.34;5021684;28;45591;-82
2022/06/29 08:41:04;;;;;;;;;1.00;1.00;;;;;22.65;40.60;100677.06;5023552;28;45737;-81
2022/06/29 08:43:30;;;;;;;;;1.50;1.50;;;;;22.67;40.81;100680.38;5019721;28;46745;-81
2022/06/29 08:45:55;;;;;;;;;3.00;1.00;;;;;22.72;40.06;100683.34;5019079;28;45580;-83
2022/06/29 08:48:21;;;;;;;;;2.00;1.00;;;;;22.70;40.01;100668.47;4997802;28;45516;-81
2022/06/29 08:50:51;;;;;;;;;2.00;1.25;;;;;22.75;39.90;100682.13;5015249;28;45503;-84
2022/06/29 08:53:17;;;;;;;;;2.00;2.00;;;;;22.75;39.78;100672.28;5015109;28;46365;-84
2022/06/29 08:55:55;;;;;;;;;1.00;1.00;;;;;22.79;40.01;100684.25;5015170;28;45741;-84
2022/06/29 08:58:24;;;;;;;;;1.00;1.00;;;;;22.76;39.78;100673.13;5015214;28;45599;-82
2022/06/29 09:00:51;;;;;;;;;2.75;2.00;;;;;22.89;39.36;100691.97;5013678;28;48006;-84
2022/06/29 09:06:38;;;;;;;;;1.50;1.25;;;;;22.83;39.40;100687.41;5013856;28;45460;-82
2022/06/29 09:09:04;;;;;;;;;0.50;0.00;;;;;22.84;40.06;100683.69;5015068;28;45614;-80
2022/06/29 09:11:29;;;;;;;;;1.00;1.00;;;;;22.84;39.66;100689.84;5015107;28;46638;-82
2022/06/29 09:14:12;;;;;;;;;3.00;2.00;;;;;22.87;39.98;100689.50;5015378;28;46393;-79
2022/06/29 09:16:55;;;;;;;;;2.00;1.00;;;;;22.94;39.61;100686.91;5015330;28;45627;-83
2022/06/29 09:19:35;;;;;;;;;1.25;1.00;;;;;22.98;39.49;100690.88;5015204;28;45495;-77
2022/06/29 09:22:02;;;;;;;;;0.00;0.00;;;;;23.03;39.28;100699.16;5015095;28;46431;-81
2022/06/29 09:24:30;;;;;;;;;1.00;1.00;;;;;23.05;39.32;100696.28;5014936;28;46251;-84
2022/06/29 09:26:58;;;;;;;;;2.00;2.00;;;;;23.02;39.40;100695.63;5015092;28;45563;-84
2022/06/29 09:29:32;;;;;;;;;3.00;2.00;;;;;23.06;39.21;100692.59;5015153;28;45699;-84
2022/06/29 09:32:06;;;;;;;;;1.00;1.00;;;;;23.06;38.88;100689.91;5012822;28;47296;-85
2022/06/29 09:34:34;;;;;;;;;1.50;1.50;;;;;23.09;38.84;100703.75;5014992;28;46212;-84
2022/06/29 09:37:02;;;;;;;;;1.00;1.00;;;;;23.08;38.91;100715.44;5015274;28;45863;-82
2022/06/29 09:39:35;;;;;;;;;0.00;0.00;;;;;22.99;38.96;100713.91;4997518;28;45846;-82
2022/06/29 09:42:03;;;;;;;;;1.00;1.00;;;;;23.00;38.28;100707.53;5014809;28;46575;-83
2022/06/29 09:44:29;;;;;;;;;1.75;1.50;;;;;22.99;38.99;100704.03;4996897;28;48357;-82
2022/06/29 09:46:56;;;;;;;;;1.00;1.00;;;;;22.93;39.12;100693.28;5014911;28;45566;-85
2022/06/29 09:49:27;;;;;;;;;3.00;2.00;;;;;22.99;38.22;100708.56;5015209;28;45475;-84
2022/06/29 09:51:57;;;;;;;;;1.00;0.25;;;;;22.95;38.59;100700.06;5014560;28;45607;-84
2022/06/29 09:54:31;;;;;;;;;2.00;1.25;;;;;22.99;38.75;100706.72;5013563;28;46261;-84
2022/06/29 09:56:58;;;;;;;;;1.00;1.00;;;;;22.95;38.17;100699.25;5014785;28;45553;-82
2022/06/29 10:05:05;;;;;;;;;1.00;1.00;;;;;23.01;39.00;100693.16;5014550;28;45956;-85
2022/06/29 10:07:35;;;;;;;;;1.00;1.00;;;;;22.99;38.47;100679.16;5014411;28;45635;-82
2022/06/29 10:10:03;;;;;;;;;1.00;1.00;;;;;23.07;38.85;100692.41;5014770;28;45639;-81
2022/06/29 10:15:57;;;;;;;;;1.25;1.25;;;;;23.07;37.99;100689.72;5014228;28;45995;-85
2022/06/29 10:18:44;;;;;;;;;0.25;0.25;;;;;23.04;37.64;100684.78;5014436;28;45664;-82
2022/06/29 10:21:19;;;;;;;;;1.25;1.00;;;;;23.02;38.25;100679.59;5014434;28;45618;-83
2022/06/29 10:23:52;;;;;;;;;1.00;1.00;;;;;22.98;38.59;100672.16;5014480;28;45653;-83
2022/06/29 10:26:34;;;;;;;;;3.00;1.00;;;;;23.08;38.65;100675.34;4996239;28;46892;-81
2022/06/29 10:29:06;;;;;;;;;1.25;1.25;;;;;23.12;38.14;100675.78;4996607;28;46463;-83
2022/06/29 10:35:07;;;;;;;;;1.00;1.00;;;;;23.21;37.28;100669.34;5017224;28;45995;-84
2022/06/29 10:37:45;;;;;;;;;1.25;1.25;;;;;23.24;37.82;100668.94;5017586;28;45939;-86
2022/06/29 10:40:17;;;;;;;;;3.00;2.00;;;;;23.28;37.51;100656.84;5017407;28;45685;-82
2022/06/29 10:45:41;;;;;;;;;1.00;1.00;;;;;23.37;36.55;100656.53;5018702;28;45598;-83
2022/06/29 10:51:29;;;;;;;;;1.50;1.50;;;;;23.36;35.67;100648.72;5019032;28;45541;-84
2022/06/29 10:53:54;;;;;;;;;1.00;1.00;;;;;23.40;36.01;100634.75;5020664;28;45501;-84
2022/06/29 10:56:19;;;;;;;;;1.75;1.00;;;;;23.50;36.20;100650.50;5019142;28;46471;-78
2022/06/29 10:58:45;;;;;;;;;1.75;1.00;;;;;23.58;35.17;100652.25;5019309;28;45406;-82
2022/06/29 11:01:10;;;;;;;;;2.00;1.00;;;;;23.60;34.63;100653.69;5018610;28;45622;-77
2022/06/29 11:12:33;;;;;;;;;1.00;1.00;;;;;23.77;34.21;100633.66;5018893;28;45759;-86
2022/06/29 11:17:47;;;;;;;;;0.25;0.25;;;;;23.91;34.69;100629.25;5018850;28;45718;-80
2022/06/29 11:20:20;;;;;;;;;2.00;2.00;;;;;23.97;34.96;100633.78;5018709;28;46169;-78
2022/06/29 11:22:50;;;;;;;;;0.75;0.75;;;;;23.96;35.08;100626.00;5017943;28;45695;-79
2022/06/29 11:25:15;;;;;;;;;1.00;1.00;;;;;23.90;35.53;100619.56;5017892;28;45627;-85
2022/06/29 11:27:41;;;;;;;;;1.75;1.75;;;;;23.98;35.48;100629.28;5020925;28;46459;-84
2022/06/29 11:30:12;;;;;;;;;1.00;1.00;;;;;24.05;35.00;100630.16;5021979;28;45698;-85
2022/06/29 11:32:48;;;;;;;;;1.00;1.00;;;;;24.08;34.47;100627.06;5020182;28;45769;-79
2022/06/29 11:35:20;;;;;;;;;0.50;0.50;;;;;24.08;33.97;100627.91;5017866;28;45779;-81
2022/06/29 11:38:05;;;;;;;;;0.00;0.00;;;;;24.04;34.73;100615.13;5015517;28;45771;-81
2022/06/29 11:40:41;;;;;;;;;0.50;0.50;;;;;24.13;33.98;100619.31;5015533;28;46283;-79
2022/06/29 11:43:10;;;;;;;;;2.00;1.00;;;;;24.14;34.44;100613.72;5015751;28;46039;-80
2022/06/29 11:45:38;;;;;;;;;1.00;1.00;;;;;24.16;33.82;100619.72;5013978;28;46035;-80
2022/06/29 11:48:11;;;;;;;;;1.50;1.00;;;;;24.20;33.71;100607.63;5014029;28;45625;-81
2022/06/29 11:50:48;;;;;;;;;1.00;1.00;;;;;24.17;33.97;100588.44;5014529;28;46885;-81
2022/06/29 11:53:34;;;;;;;;;2.75;1.00;;;;;24.28;34.20;100601.28;5014665;28;45775;-80
2022/06/29 11:55:59;;;;;;;;;0.75;0.75;;;;;24.30;34.37;100598.41;5015117;28;45888;-82
2022/06/29 11:58:25;;;;;;;;;1.00;1.00;;;;;24.36;33.87;100614.50;5014565;28;46676;-80
2022/06/29 12:00:54;;;;;;;;;1.50;1.00;;;;;24.37;34.34;100612.66;5014756;28;46203;-82
2022/06/29 12:03:19;;;;;;;;;1.25;1.00;;;;;24.38;33.94;100599.06;5015179;28;45698;-80
2022/06/29 12:05:59;;;;;;;;;0.75;0.75;;;;;24.46;34.38;100595.38;5014426;28;45596;-83
2022/06/29 12:08:26;;;;;;;;;1.00;1.00;;;;;24.57;33.99;100601.00;5015586;28;46721;-81
2022/06/29 12:10:52;;;;;;;;;1.00;1.00;;;;;24.65;34.16;100590.13;5014909;28;46334;-79
2022/06/29 12:13:17;;;;;;;;;1.00;0.00;;;;;24.68;34.09;100586.19;5015247;28;45749;-80
2022/06/29 12:15:43;;;;;;;;;1.00;1.00;;;;;24.76;34.32;100585.19;5015903;28;45697;-80
2022/06/29 12:18:08;;;;;;;;;1.25;0.25;;;;;24.89;33.89;100591.44;5014501;28;46401;-78
2022/06/29 12:20:33;;;;;;;;;2.00;1.00;;;;;24.91;34.03;100580.53;5014570;28;46066;-82
2022/06/29 12:22:59;;;;;;;;;1.75;1.00;;;;;25.01;34.09;100576.41;5014560;28;45548;-81
2022/06/29 12:25:24;;;;;;;;;1.00;1.00;;;;;25.08;33.63;100571.91;5015018;28;45731;-83
2022/06/29 12:27:49;;;;;;;;;0.50;0.50;;;;;25.19;33.50;100559.75;5014278;28;45874;-81
2022/06/29 12:30:15;;;;;;;;;1.00;0.50;;;;;25.37;33.38;100576.03;5014402;28;45627;-81
2022/06/29 12:32:41;;;;;;;;;1.00;0.00;;;;;25.44;32.73;100576.03;5013910;28;45813;-81
2022/06/29 12:38:29;;;;;;;;;1.00;1.00;;;;;25.47;32.91;100556.88;5014319;28;45677;-80
2022/06/29 12:40:54;;;;;;;;;2.00;2.00;;;;;25.41;33.05;100549.63;5014221;28;45864;-80
2022/06/29 12:43:20;;;;;;;;;1.00;1.00;;;;;25.51;33.03;100560.78;5014503;28;45662;-83
2022/06/29 12:45:46;;;;;;;;;2.00;2.00;;;;;25.60;32.90;100558.72;5013011;28;45526;-79
2022/06/29 12:48:12;;;;;;;;;1.00;0.75;;;;;25.66;33.15;100560.56;5013600;28;46717;-82
2022/06/29 12:50:37;;;;;;;;;1.00;1.00;;;;;25.59;32.94;100535.63;5014936;28;46184;-80
2022/06/29 12:53:03;;;;;;;;;2.00;2.00;;;;;25.67;32.90;100546.13;5014964;28;45621;-80
2022/06/29 12:55:28;;;;;;;;;1.00;1.00;;;;;25.73;32.67;100559.56;4996856;28;45557;-81
2022/06/29 12:57:54;;;;;;;;;0.50;0.50;;;;;25.72;33.07;100543.66;5012999;28;47540;-80
2022/06/29 13:00:19;;;;;;;;;1.00;1.00;;;;;25.76;33.05;100537.63;5014995;28;46051;-83
2022/06/29 13:02:45;;;;;;;;;1.50;1.50;;;;;25.73;32.69;100540.75;5014979;28;46193;-83
2022/06/29 13:08:32;;;;;;;;;0.50;0.25;;;;;25.76;33.21;100534.97;5012871;28;45983;-80
2022/06/29 13:11:00;;;;;;;;;2.00;2.00;;;;;25.76;32.90;100534.13;4996856;28;47067;-83